sensor_id;sensor_type;location;lat;lon;timestamp;temperature;humidity
16625;DHT22;8426;48.496;9.098;2022-09-17T00:04:17;8.20;99.90
16625;DHT22;8426;48.496;9.098;2022-09-17T00:09:22;8.20;99.90
16625;DHT22;8426;48.496;9.098;2022-09-17T00:14:25;8.30;99.90
16625;DHT22;8426;48.496;9.098;2022-09-17T00:19:28;8.30;99.90
16625;DHT22;8426;48.496;9.098;2022-09-17T00:24:33;8.40;99.90
16625;DHT22;8426;48.496;9.098;2022-09-17T00:29:36;8.50;99.90
16625;DHT22;8426;48.496;9.098;2022-09-17T00:34:39;8.60;99.90
16625;DHT22;8426;48.496;9.098;2022-09-17T00:39:45;8.70;99.90
16625;DHT22;8426;48.496;9.098;2022-09-17T00:44:50;8.80;99.90
16625;DHT22;8426;48.496;9.098;2022-09-17T00:49:57;8.90;99.90
16625;DHT22;8426;48.496;9.098;2022-09-17T00:55:08;9.00;99.90
16625;DHT22;8426;48.496;9.098;2022-09-17T01:00:14;9.00;99.90
16625;DHT22;8426;48.496;9.098;2022-09-17T01:05:21;9.10;99.90
16625;DHT22;8426;48.496;9.098;2022-09-17T01:10:40;9.10;99.90
16625;DHT22;8426;48.496;9.098;2022-09-17T01:15:54;9.10;99.90
16625;DHT22;8426;48.496;9.098;2022-09-17T01:32:24;9.10;99.90
16625;DHT22;8426;48.496;9.098;2022-09-17T01:37:31;9.10;99.90
16625;DHT22;8426;48.496;9.098;2022-09-17T01:42:41;9.10;99.90
16625;DHT22;8426;48.496;9.098;2022-09-17T01:47:53;9.10;99.90
16625;DHT22;8426;48.496;9.098;2022-09-17T01:52:59;9.10;99.90
16625;DHT22;8426;48.496;9.098;2022-09-17T01:58:07;9.10;99.90
16625;DHT22;8426;48.496;9.098;2022-09-17T02:03:18;9.20;99.90
16625;DHT22;8426;48.496;9.098;2022-09-17T02:08:25;9.20;99.90
16625;DHT22;8426;48.496;9.098;2022-09-17T02:13:33;9.10;99.90
16625;DHT22;8426;48.496;9.098;2022-09-17T02:18:45;9.00;99.90
16625;DHT22;8426;48.496;9.098;2022-09-17T02:23:55;8.70;99.90
16625;DHT22;8426;48.496;9.098;2022-09-17T02:29:05;8.60;99.90
16625;DHT22;8426;48.496;9.098;2022-09-17T02:34:11;8.40;99.90
16625;DHT22;8426;48.496;9.098;2022-09-17T02:39:14;8.30;99.90
16625;DHT22;8426;48.496;9.098;2022-09-17T02:44:26;8.30;99.90
16625;DHT22;8426;48.496;9.098;2022-09-17T02:49:56;8.40;99.90
16625;DHT22;8426;48.496;9.098;2022-09-17T02:55:07;8.60;99.90
16625;DHT22;8426;48.496;9.098;2022-09-17T03:00:16;8.60;99.90
16625;DHT22;8426;48.496;9.098;2022-09-17T03:05:25;8.70;99.90
16625;DHT22;8426;48.496;9.098;2022-09-17T03:10:29;8.70;99.90
16625;DHT22;8426;48.496;9.098;2022-09-17T03:15:34;8.80;99.90
16625;DHT22;8426;48.496;9.098;2022-09-17T03:20:39;8.70;99.90
16625;DHT22;8426;48.496;9.098;2022-09-17T03:25:42;8.70;99.90
16625;DHT22;8426;48.496;9.098;2022-09-17T03:30:45;8.70;99.90
16625;DHT22;8426;48.496;9.098;2022-09-17T03:35:50;8.70;99.90
16625;DHT22;8426;48.496;9.098;2022-09-17T03:40:57;8.60;99.90
16625;DHT22;8426;48.496;9.098;2022-09-17T03:46:00;8.50;99.90
16625;DHT22;8426;48.496;9.098;2022-09-17T03:51:05;8.30;99.90
16625;DHT22;8426;48.496;9.098;2022-09-17T03:56:08;8.00;99.90
16625;DHT22;8426;48.496;9.098;2022-09-17T04:01:11;7.80;99.90
16625;DHT22;8426;48.496;9.098;2022-09-17T04:06:16;7.60;99.90
16625;DHT22;8426;48.496;9.098;2022-09-17T04:11:19;7.60;99.90
16625;DHT22;8426;48.496;9.098;2022-09-17T04:16:22;7.70;99.90
16625;DHT22;8426;48.496;9.098;2022-09-17T04:21:27;7.80;99.90
16625;DHT22;8426;48.496;9.098;2022-09-17T04:26:30;7.90;99.90
16625;DHT22;8426;48.496;9.098;2022-09-17T04:31:33;7.90;99.90
16625;DHT22;8426;48.496;9.098;2022-09-17T04:36:38;7.80;99.90
16625;DHT22;8426;48.496;9.098;2022-09-17T04:41:41;7.80;99.90
16625;DHT22;8426;48.496;9.098;2022-09-17T04:46:44;7.90;99.90
16625;DHT22;8426;48.496;9.098;2022-09-17T04:51:49;8.10;99.90
16625;DHT22;8426;48.496;9.098;2022-09-17T04:56:52;8.10;99.90
16625;DHT22;8426;48.496;9.098;2022-09-17T05:01:55;8.10;99.90
16625;DHT22;8426;48.496;9.098;2022-09-17T05:07:00;7.90;99.90
16625;DHT22;8426;48.496;9.098;2022-09-17T05:12:03;7.90;99.90
16625;DHT22;8426;48.496;9.098;2022-09-17T05:17:07;7.80;99.90
16625;DHT22;8426;48.496;9.098;2022-09-17T05:22:12;7.60;99.90
16625;DHT22;8426;48.496;9.098;2022-09-17T05:27:21;7.50;99.90
16625;DHT22;8426;48.496;9.098;2022-09-17T05:32:25;7.50;99.90
16625;DHT22;8426;48.496;9.098;2022-09-17T05:37:29;7.50;99.90
16625;DHT22;8426;48.496;9.098;2022-09-17T05:42:33;7.70;99.90
16625;DHT22;8426;48.496;9.098;2022-09-17T05:47:36;8.10;99.90
16625;DHT22;8426;48.496;9.098;2022-09-17T05:52:40;8.20;99.90
16625;DHT22;8426;48.496;9.098;2022-09-17T05:57:44;8.40;99.90
16625;DHT22;8426;48.496;9.098;2022-09-17T06:02:53;8.70;99.90
16625;DHT22;8426;48.496;9.098;2022-09-17T06:07:58;8.80;99.90
16625;DHT22;8426;48.496;9.098;2022-09-17T06:13:01;8.70;99.90
16625;DHT22;8426;48.496;9.098;2022-09-17T06:18:04;8.90;99.90
16625;DHT22;8426;48.496;9.098;2022-09-17T06:23:09;9.00;99.90
16625;DHT22;8426;48.496;9.098;2022-09-17T06:28:16;9.30;99.90
16625;DHT22;8426;48.496;9.098;2022-09-17T06:33:20;9.40;99.90
16625;DHT22;8426;48.496;9.098;2022-09-17T06:38:25;12.20;99.90
16625;DHT22;8426;48.496;9.098;2022-09-17T06:43:28;16.00;99.90
16625;DHT22;8426;48.496;9.098;2022-09-17T06:48:32;18.70;99.90
16625;DHT22;8426;48.496;9.098;2022-09-17T06:53:38;20.00;99.90
16625;DHT22;8426;48.496;9.098;2022-09-17T06:58:41;20.90;99.90
16625;DHT22;8426;48.496;9.098;2022-09-17T07:03:44;17.20;99.90
16625;DHT22;8426;48.496;9.098;2022-09-17T07:08:51;13.90;99.90
16625;DHT22;8426;48.496;9.098;2022-09-17T07:13:54;11.90;99.90
16625;DHT22;8426;48.496;9.098;2022-09-17T07:18:57;11.00;99.90
16625;DHT22;8426;48.496;9.098;2022-09-17T07:24:03;10.70;99.90
16625;DHT22;8426;48.496;9.098;2022-09-17T07:29:07;10.60;99.90
16625;DHT22;8426;48.496;9.098;2022-09-17T07:34:10;10.70;99.90
16625;DHT22;8426;48.496;9.098;2022-09-17T07:39:15;11.10;99.90
16625;DHT22;8426;48.496;9.098;2022-09-17T07:44:18;11.10;99.90
16625;DHT22;8426;48.496;9.098;2022-09-17T07:49:22;10.70;99.90
16625;DHT22;8426;48.496;9.098;2022-09-17T07:54:27;10.40;99.90
16625;DHT22;8426;48.496;9.098;2022-09-17T07:59:31;10.20;99.90
16625;DHT22;8426;48.496;9.098;2022-09-17T08:04:34;10.30;99.90
16625;DHT22;8426;48.496;9.098;2022-09-17T08:09:39;10.40;99.90
16625;DHT22;8426;48.496;9.098;2022-09-17T08:14:42;10.40;99.90
16625;DHT22;8426;48.496;9.098;2022-09-17T08:19:45;10.70;99.90
16625;DHT22;8426;48.496;9.098;2022-09-17T08:24:50;10.70;99.90
16625;DHT22;8426;48.496;9.098;2022-09-17T08:29:53;10.70;99.90
16625;DHT22;8426;48.496;9.098;2022-09-17T08:34:56;10.90;99.90
16625;DHT22;8426;48.496;9.098;2022-09-17T08:40:01;11.10;99.90
16625;DHT22;8426;48.496;9.098;2022-09-17T08:45:09;12.70;99.90
16625;DHT22;8426;48.496;9.098;2022-09-17T08:50:27;13.40;99.90
16625;DHT22;8426;48.496;9.098;2022-09-17T08:55:39;13.30;99.90
16625;DHT22;8426;48.496;9.098;2022-09-17T09:00:47;12.70;99.90
16625;DHT22;8426;48.496;9.098;2022-09-17T09:05:52;11.90;99.90
16625;DHT22;8426;48.496;9.098;2022-09-17T09:11:00;12.30;99.90
16625;DHT22;8426;48.496;9.098;2022-09-17T09:16:06;12.60;99.90
16625;DHT22;8426;48.496;9.098;2022-09-17T09:21:24;12.20;99.90
16625;DHT22;8426;48.496;9.098;2022-09-17T09:26:42;11.80;99.90
16625;DHT22;8426;48.496;9.098;2022-09-17T09:32:00;13.10;99.90
16625;DHT22;8426;48.496;9.098;2022-09-17T09:37:11;14.90;99.90
16625;DHT22;8426;48.496;9.098;2022-09-17T09:42:26;15.10;99.90
16625;DHT22;8426;48.496;9.098;2022-09-17T09:47:51;14.20;99.90
16625;DHT22;8426;48.496;9.098;2022-09-17T09:53:04;13.50;99.90
16625;DHT22;8426;48.496;9.098;2022-09-17T09:58:16;13.90;99.90
16625;DHT22;8426;48.496;9.098;2022-09-17T10:03:26;14.30;99.90
16625;DHT22;8426;48.496;9.098;2022-09-17T10:08:34;13.90;99.90
16625;DHT22;8426;48.496;9.098;2022-09-17T10:13:40;14.00;99.90
16625;DHT22;8426;48.496;9.098;2022-09-17T10:18:46;13.70;99.90
16625;DHT22;8426;48.496;9.098;2022-09-17T10:23:50;13.10;99.90
16625;DHT22;8426;48.496;9.098;2022-09-17T10:28:55;13.20;99.90
16625;DHT22;8426;48.496;9.098;2022-09-17T10:34:01;13.40;99.90
16625;DHT22;8426;48.496;9.098;2022-09-17T10:39:32;14.00;99.90
16625;DHT22;8426;48.496;9.098;2022-09-17T10:44:50;14.80;99.90
16625;DHT22;8426;48.496;9.098;2022-09-17T10:49:56;14.60;99.90
16625;DHT22;8426;48.496;9.098;2022-09-17T10:55:11;15.00;99.90
16625;DHT22;8426;48.496;9.098;2022-09-17T11:00:19;14.60;99.90
16625;DHT22;8426;48.496;9.098;2022-09-17T11:06:06;15.40;99.90
16625;DHT22;8426;48.496;9.098;2022-09-17T11:11:28;14.80;99.90
16625;DHT22;8426;48.496;9.098;2022-09-17T11:16:44;14.90;99.90
16625;DHT22;8426;48.496;9.098;2022-09-17T11:21:57;15.80;99.90
16625;DHT22;8426;48.496;9.098;2022-09-17T11:27:13;15.80;99.90
16625;DHT22;8426;48.496;9.098;2022-09-17T11:32:35;15.20;99.90
16625;DHT22;8426;48.496;9.098;2022-09-17T11:37:44;14.90;99.90
16625;DHT22;8426;48.496;9.098;2022-09-17T11:42:53;15.30;99.90
16625;DHT22;8426;48.496;9.098;2022-09-17T11:48:04;15.80;99.90
16625;DHT22;8426;48.496;9.098;2022-09-17T11:53:16;15.60;99.90
16625;DHT22;8426;48.496;9.098;2022-09-17T11:58:26;15.90;99.90
16625;DHT22;8426;48.496;9.098;2022-09-17T12:03:33;16.00;99.90
16625;DHT22;8426;48.496;9.098;2022-09-17T12:08:43;16.00;99.90
16625;DHT22;8426;48.496;9.098;2022-09-17T12:13:51;15.70;99.90
16625;DHT22;8426;48.496;9.098;2022-09-17T12:19:01;15.50;99.90
16625;DHT22;8426;48.496;9.098;2022-09-17T12:24:11;15.70;99.90
16625;DHT22;8426;48.496;9.098;2022-09-17T12:29:34;15.90;99.90
16625;DHT22;8426;48.496;9.098;2022-09-17T12:34:52;15.60;99.90
16625;DHT22;8426;48.496;9.098;2022-09-17T12:40:07;15.50;99.90
16625;DHT22;8426;48.496;9.098;2022-09-17T12:45:32;15.90;99.90
16625;DHT22;8426;48.496;9.098;2022-09-17T12:50:48;15.90;99.90
16625;DHT22;8426;48.496;9.098;2022-09-17T12:56:08;15.60;99.90
16625;DHT22;8426;48.496;9.098;2022-09-17T13:01:20;15.10;99.90
16625;DHT22;8426;48.496;9.098;2022-09-17T13:07:00;14.80;99.90
16625;DHT22;8426;48.496;9.098;2022-09-17T13:12:19;14.90;99.90
16625;DHT22;8426;48.496;9.098;2022-09-17T13:17:32;15.00;99.90
16625;DHT22;8426;48.496;9.098;2022-09-17T13:22:46;15.80;99.90
16625;DHT22;8426;48.496;9.098;2022-09-17T13:28:05;15.40;99.90
16625;DHT22;8426;48.496;9.098;2022-09-17T13:33:10;14.30;99.90
16625;DHT22;8426;48.496;9.098;2022-09-17T13:38:20;12.90;99.90
16625;DHT22;8426;48.496;9.098;2022-09-17T13:43:27;12.20;99.90
16625;DHT22;8426;48.496;9.098;2022-09-17T13:48:31;11.60;99.90
16625;DHT22;8426;48.496;9.098;2022-09-17T13:53:38;11.40;99.90
16625;DHT22;8426;48.496;9.098;2022-09-17T13:58:43;11.40;99.90
16625;DHT22;8426;48.496;9.098;2022-09-17T14:03:53;11.70;99.90
16625;DHT22;8426;48.496;9.098;2022-09-17T14:08:59;12.30;99.90
16625;DHT22;8426;48.496;9.098;2022-09-17T14:14:50;12.50;99.90
16625;DHT22;8426;48.496;9.098;2022-09-17T14:19:54;12.80;99.90
16625;DHT22;8426;48.496;9.098;2022-09-17T14:25:14;13.10;99.90
16625;DHT22;8426;48.496;9.098;2022-09-17T14:30:19;13.70;99.90
16625;DHT22;8426;48.496;9.098;2022-09-17T14:35:28;14.00;99.90
16625;DHT22;8426;48.496;9.098;2022-09-17T14:40:33;13.70;99.90
16625;DHT22;8426;48.496;9.098;2022-09-17T14:45:40;13.70;99.90
16625;DHT22;8426;48.496;9.098;2022-09-17T14:50:44;13.50;99.90
16625;DHT22;8426;48.496;9.098;2022-09-17T14:55:50;13.80;99.90
16625;DHT22;8426;48.496;9.098;2022-09-17T15:00:53;14.10;99.90
16625;DHT22;8426;48.496;9.098;2022-09-17T15:05:57;14.20;99.90
16625;DHT22;8426;48.496;9.098;2022-09-17T15:11:10;14.00;99.90
16625;DHT22;8426;48.496;9.098;2022-09-17T15:16:19;13.90;99.90
16625;DHT22;8426;48.496;9.098;2022-09-17T15:21:33;13.70;99.90
16625;DHT22;8426;48.496;9.098;2022-09-17T15:26:41;13.30;99.90
16625;DHT22;8426;48.496;9.098;2022-09-17T15:31:44;13.00;99.90
16625;DHT22;8426;48.496;9.098;2022-09-17T15:37:02;13.10;99.90
16625;DHT22;8426;48.496;9.098;2022-09-17T15:42:18;13.00;99.90
16625;DHT22;8426;48.496;9.098;2022-09-17T15:47:51;13.10;99.90
16625;DHT22;8426;48.496;9.098;2022-09-17T15:53:19;12.80;99.90
16625;DHT22;8426;48.496;9.098;2022-09-17T15:58:28;12.50;99.90
16625;DHT22;8426;48.496;9.098;2022-09-17T16:04:03;12.50;99.90
16625;DHT22;8426;48.496;9.098;2022-09-17T16:14:51;12.20;99.90
16625;DHT22;8426;48.496;9.098;2022-09-17T16:19:55;12.00;99.90
16625;DHT22;8426;48.496;9.098;2022-09-17T16:25:05;12.00;99.90
16625;DHT22;8426;48.496;9.098;2022-09-17T16:30:20;12.00;99.90
16625;DHT22;8426;48.496;9.098;2022-09-17T16:35:27;12.00;99.90
16625;DHT22;8426;48.496;9.098;2022-09-17T16:40:30;12.30;99.90
16625;DHT22;8426;48.496;9.098;2022-09-17T16:45:35;12.30;99.90
16625;DHT22;8426;48.496;9.098;2022-09-17T16:50:39;12.00;99.90
16625;DHT22;8426;48.496;9.098;2022-09-17T16:55:43;11.70;99.90
16625;DHT22;8426;48.496;9.098;2022-09-17T17:00:47;11.30;99.90
16625;DHT22;8426;48.496;9.098;2022-09-17T17:05:50;11.10;99.90
16625;DHT22;8426;48.496;9.098;2022-09-17T17:10:54;10.80;99.90
16625;DHT22;8426;48.496;9.098;2022-09-17T17:15:58;10.60;99.90
16625;DHT22;8426;48.496;9.098;2022-09-17T17:21:04;10.50;99.90
16625;DHT22;8426;48.496;9.098;2022-09-17T17:26:08;10.50;99.90
16625;DHT22;8426;48.496;9.098;2022-09-17T17:31:12;10.50;99.90
16625;DHT22;8426;48.496;9.098;2022-09-17T17:36:16;10.50;99.90
16625;DHT22;8426;48.496;9.098;2022-09-17T17:41:20;10.50;99.90
16625;DHT22;8426;48.496;9.098;2022-09-17T17:46:25;10.40;99.90
16625;DHT22;8426;48.496;9.098;2022-09-17T17:51:28;10.40;99.90
16625;DHT22;8426;48.496;9.098;2022-09-17T17:56:32;10.40;99.90
16625;DHT22;8426;48.496;9.098;2022-09-17T18:01:37;10.40;99.90
16625;DHT22;8426;48.496;9.098;2022-09-17T18:06:41;10.40;99.90
16625;DHT22;8426;48.496;9.098;2022-09-17T18:11:48;10.40;99.90
16625;DHT22;8426;48.496;9.098;2022-09-17T18:16:53;10.40;99.90
16625;DHT22;8426;48.496;9.098;2022-09-17T18:21:56;10.30;99.90
16625;DHT22;8426;48.496;9.098;2022-09-17T18:27:02;10.30;99.90
16625;DHT22;8426;48.496;9.098;2022-09-17T18:32:07;10.20;99.90
16625;DHT22;8426;48.496;9.098;2022-09-17T18:37:11;10.10;99.90
16625;DHT22;8426;48.496;9.098;2022-09-17T18:42:14;10.10;99.90
16625;DHT22;8426;48.496;9.098;2022-09-17T18:47:19;10.10;99.90
16625;DHT22;8426;48.496;9.098;2022-09-17T18:52:22;10.10;99.90
16625;DHT22;8426;48.496;9.098;2022-09-17T18:57:26;10.00;99.90
16625;DHT22;8426;48.496;9.098;2022-09-17T19:02:32;10.00;99.90
16625;DHT22;8426;48.496;9.098;2022-09-17T19:07:35;10.00;99.90
16625;DHT22;8426;48.496;9.098;2022-09-17T19:12:39;10.00;99.90
16625;DHT22;8426;48.496;9.098;2022-09-17T19:17:44;9.80;99.90
16625;DHT22;8426;48.496;9.098;2022-09-17T19:22:48;9.80;99.90
16625;DHT22;8426;48.496;9.098;2022-09-17T19:27:51;9.90;99.90
16625;DHT22;8426;48.496;9.098;2022-09-17T19:32:58;9.90;99.90
16625;DHT22;8426;48.496;9.098;2022-09-17T19:38:01;9.90;99.90
16625;DHT22;8426;48.496;9.098;2022-09-17T19:43:04;9.90;99.90
16625;DHT22;8426;48.496;9.098;2022-09-17T19:48:09;10.00;99.90
16625;DHT22;8426;48.496;9.098;2022-09-17T19:53:12;9.90;99.90
16625;DHT22;8426;48.496;9.098;2022-09-17T19:58:15;9.80;99.90
16625;DHT22;8426;48.496;9.098;2022-09-17T20:03:23;9.70;99.90
16625;DHT22;8426;48.496;9.098;2022-09-17T20:08:27;9.10;99.90
16625;DHT22;8426;48.496;9.098;2022-09-17T20:13:30;8.50;99.90
16625;DHT22;8426;48.496;9.098;2022-09-17T20:18:36;8.20;99.90
16625;DHT22;8426;48.496;9.098;2022-09-17T20:23:39;8.10;99.90
16625;DHT22;8426;48.496;9.098;2022-09-17T20:28:43;8.10;99.90
16625;DHT22;8426;48.496;9.098;2022-09-17T20:33:50;8.00;99.90
16625;DHT22;8426;48.496;9.098;2022-09-17T20:38:53;7.90;99.90
16625;DHT22;8426;48.496;9.098;2022-09-17T20:44:17;7.80;99.90
16625;DHT22;8426;48.496;9.098;2022-09-17T20:49:23;7.70;99.90
16625;DHT22;8426;48.496;9.098;2022-09-17T20:54:26;7.70;99.90
16625;DHT22;8426;48.496;9.098;2022-09-17T20:59:29;7.70;99.90
16625;DHT22;8426;48.496;9.098;2022-09-17T21:04:52;7.80;99.90
16625;DHT22;8426;48.496;9.098;2022-09-17T21:09:55;7.90;99.90
16625;DHT22;8426;48.496;9.098;2022-09-17T21:14:59;7.80;99.90
16625;DHT22;8426;48.496;9.098;2022-09-17T21:20:04;7.80;99.90
16625;DHT22;8426;48.496;9.098;2022-09-17T21:25:08;7.90;99.90
16625;DHT22;8426;48.496;9.098;2022-09-17T21:30:12;7.90;99.90
16625;DHT22;8426;48.496;9.098;2022-09-17T21:35:16;8.00;99.90
16625;DHT22;8426;48.496;9.098;2022-09-17T21:40:20;8.10;99.90
16625;DHT22;8426;48.496;9.098;2022-09-17T21:45:23;8.10;99.90
16625;DHT22;8426;48.496;9.098;2022-09-17T21:50:27;8.20;99.90
16625;DHT22;8426;48.496;9.098;2022-09-17T21:55:32;8.30;99.90
16625;DHT22;8426;48.496;9.098;2022-09-17T22:00:35;8.20;99.90
16625;DHT22;8426;48.496;9.098;2022-09-17T22:05:40;8.20;99.90
16625;DHT22;8426;48.496;9.098;2022-09-17T22:10:43;8.00;99.90
16625;DHT22;8426;48.496;9.098;2022-09-17T22:15:55;7.90;99.90
16625;DHT22;8426;48.496;9.098;2022-09-17T22:21:00;7.80;99.90
16625;DHT22;8426;48.496;9.098;2022-09-17T22:26:05;7.70;99.90
16625;DHT22;8426;48.496;9.098;2022-09-17T22:31:10;7.60;99.90
16625;DHT22;8426;48.496;9.098;2022-09-17T22:36:16;7.60;99.90
16625;DHT22;8426;48.496;9.098;2022-09-17T22:41:25;7.50;99.90
16625;DHT22;8426;48.496;9.098;2022-09-17T22:46:30;7.50;99.90
16625;DHT22;8426;48.496;9.098;2022-09-17T22:51:36;7.50;99.90
16625;DHT22;8426;48.496;9.098;2022-09-17T22:56:40;7.60;99.90
16625;DHT22;8426;48.496;9.098;2022-09-17T23:01:44;7.60;99.90
16625;DHT22;8426;48.496;9.098;2022-09-17T23:06:49;7.60;99.90
16625;DHT22;8426;48.496;9.098;2022-09-17T23:11:52;7.50;99.90
16625;DHT22;8426;48.496;9.098;2022-09-17T23:16:57;7.50;99.90
16625;DHT22;8426;48.496;9.098;2022-09-17T23:22:02;7.60;99.90
16625;DHT22;8426;48.496;9.098;2022-09-17T23:27:05;7.70;99.90
16625;DHT22;8426;48.496;9.098;2022-09-17T23:32:08;7.80;99.90
16625;DHT22;8426;48.496;9.098;2022-09-17T23:37:13;7.90;99.90
16625;DHT22;8426;48.496;9.098;2022-09-17T23:42:16;7.90;99.90
16625;DHT22;8426;48.496;9.098;2022-09-17T23:47:19;8.00;99.90
16625;DHT22;8426;48.496;9.098;2022-09-17T23:52:24;8.00;99.90
16625;DHT22;8426;48.496;9.098;2022-09-17T23:57:27;8.00;99.90
